createdAt,value
2019-05-20T00:00:48.743Z,0
2019-05-20T00:01:48.545Z,0
2019-05-20T00:07:05.967Z,0
2019-05-20T00:08:17.715Z,0
2019-05-20T00:09:16.969Z,0
2019-05-20T00:10:17.028Z,0
2019-05-20T00:11:16.999Z,0
2019-05-20T00:12:16.957Z,0
2019-05-20T00:13:17.013Z,0
2019-05-20T00:14:16.936Z,0
2019-05-20T00:15:16.963Z,0
2019-05-20T00:16:16.948Z,0
2019-05-20T00:17:16.977Z,0
2019-05-20T00:18:16.962Z,0
2019-05-20T00:19:17.026Z,0
2019-05-20T00:20:17.000Z,0
2019-05-20T00:21:17.022Z,0
2019-05-20T00:22:17.005Z,0
2019-05-20T00:23:16.914Z,0
2019-05-20T00:24:17.342Z,0
2019-05-20T00:25:16.989Z,0
2019-05-20T00:26:16.992Z,0
2019-05-20T00:27:16.993Z,0
2019-05-20T00:28:17.011Z,0
2019-05-20T00:29:17.014Z,0
2019-05-20T00:30:17.365Z,0
2019-05-20T00:31:17.028Z,0
2019-05-20T00:32:17.012Z,0
2019-05-20T00:33:16.997Z,0
2019-05-20T00:34:16.981Z,0
2019-05-20T00:35:16.996Z,0
2019-05-20T00:36:17.017Z,0
2019-05-20T00:37:17.034Z,0
2019-05-20T00:38:17.050Z,0
2019-05-20T00:39:17.047Z,0
2019-05-20T00:40:17.063Z,0
2019-05-20T00:41:17.131Z,0
2019-05-20T00:42:17.038Z,0
2019-05-20T00:43:17.023Z,0
2019-05-20T00:44:17.109Z,0
2019-05-20T00:45:16.999Z,0
2019-05-20T00:46:17.042Z,0
2019-05-20T00:47:17.027Z,0
2019-05-20T00:48:17.419Z,0
2019-05-20T00:49:17.003Z,0
2019-05-20T00:50:51.945Z,0
2019-05-20T00:51:17.082Z,0
2019-05-20T00:52:17.041Z,0
2019-05-20T00:53:17.152Z,0
2019-05-20T00:54:17.015Z,0
2019-05-20T00:55:17.060Z,0
2019-05-20T00:56:17.069Z,0
2019-05-20T00:57:17.116Z,0
2019-05-20T00:58:17.110Z,0
2019-05-20T00:59:17.067Z,0
2019-05-20T01:00:17.543Z,0
2019-05-20T01:01:17.109Z,0
2019-05-20T01:02:17.105Z,0
2019-05-20T01:03:17.074Z,0
2019-05-20T01:04:17.139Z,0
2019-05-20T01:05:17.070Z,0
2019-05-20T01:06:17.499Z,0
2019-05-20T01:07:17.062Z,0
2019-05-20T01:08:17.083Z,0
2019-05-20T01:09:17.037Z,0
2019-05-20T01:10:17.067Z,0
2019-05-20T01:11:17.085Z,0
2019-05-20T01:12:17.585Z,0
2019-05-20T01:17:33.783Z,0
2019-05-20T01:18:44.818Z,0
2019-05-20T01:19:44.771Z,0
2019-05-20T01:20:44.793Z,0
2019-05-20T01:21:44.768Z,0
2019-05-20T01:22:44.830Z,0
2019-05-20T01:23:44.836Z,0
2019-05-20T01:24:44.802Z,0
2019-05-20T01:25:44.837Z,0
2019-05-20T01:26:44.820Z,0
2019-05-20T01:27:44.927Z,0
2019-05-20T01:28:44.930Z,0
2019-05-20T01:29:45.218Z,0
2019-05-20T01:30:44.801Z,0
2019-05-20T01:31:44.877Z,0
2019-05-20T01:32:44.859Z,0
2019-05-20T01:33:44.814Z,0
2019-05-20T01:34:44.899Z,0
2019-05-20T01:35:44.836Z,0
2019-05-20T01:36:44.836Z,0
2019-05-20T01:37:44.823Z,0
2019-05-20T01:38:44.811Z,0
2019-05-20T01:39:44.862Z,0
2019-05-20T01:40:44.864Z,0
2019-05-20T01:41:44.820Z,0
2019-05-20T01:42:44.874Z,0
2019-05-20T01:43:44.872Z,0
2019-05-20T01:44:44.926Z,0
2019-05-20T01:45:44.870Z,0
2019-05-20T01:46:44.855Z,0
2019-05-20T01:47:44.864Z,0
2019-05-20T01:48:44.808Z,0
2019-05-20T01:49:44.859Z,0
2019-05-20T01:50:44.843Z,0
2019-05-20T01:51:44.889Z,0
2019-05-20T01:52:44.850Z,0
2019-05-20T01:53:44.801Z,0
2019-05-20T01:54:44.828Z,0
2019-05-20T01:55:44.810Z,0
2019-05-20T01:56:44.906Z,0
2019-05-20T01:57:44.889Z,0
2019-05-20T01:58:47.501Z,0
2019-05-20T01:59:44.965Z,0
2019-05-20T02:00:44.884Z,0
2019-05-20T02:01:44.840Z,0
2019-05-20T02:02:45.000Z,0
2019-05-20T02:03:44.891Z,0
2019-05-20T02:04:44.855Z,0
2019-05-20T02:05:45.295Z,0
2019-05-20T02:06:44.884Z,0
2019-05-20T02:07:44.929Z,0
2019-05-20T02:08:44.921Z,0
2019-05-20T02:09:44.891Z,0
2019-05-20T02:10:44.874Z,0
2019-05-20T02:11:45.309Z,0
2019-05-20T02:12:44.897Z,0
2019-05-20T02:13:45.129Z,0
2019-05-20T02:14:44.910Z,0
2019-05-20T02:15:45.122Z,0
2019-05-20T02:16:44.985Z,0
2019-05-20T02:17:44.930Z,0
2019-05-20T02:18:44.959Z,0
2019-05-20T02:19:44.883Z,0
2019-05-20T02:20:44.930Z,0
2019-05-20T02:21:44.959Z,0
2019-05-20T02:22:45.028Z,0
2019-05-20T02:23:44.949Z,0
2019-05-20T02:24:44.935Z,0
2019-05-20T02:25:49.450Z,0
2019-05-20T02:26:44.957Z,0
2019-05-20T02:27:44.916Z,0
2019-05-20T02:28:44.947Z,0
2019-05-20T02:29:44.932Z,0
2019-05-20T02:30:45.002Z,0
2019-05-20T02:31:44.901Z,0
2019-05-20T02:32:44.970Z,0
2019-05-20T02:33:59.479Z,0
2019-05-20T02:34:45.084Z,0
2019-05-20T02:35:45.289Z,0
2019-05-20T02:36:44.935Z,0
2019-05-20T02:37:45.006Z,0
2019-05-20T02:38:44.989Z,0
2019-05-20T02:39:45.034Z,0
2019-05-20T02:40:44.992Z,0
2019-05-20T02:41:45.038Z,0
2019-05-20T02:42:44.998Z,0
2019-05-20T02:43:44.969Z,0
2019-05-20T02:44:44.958Z,0
2019-05-20T02:45:44.991Z,0
2019-05-20T02:46:44.962Z,0
2019-05-20T02:47:45.574Z,0
2019-05-20T02:48:44.957Z,0
2019-05-20T02:49:44.941Z,0
2019-05-20T02:50:45.013Z,0
2019-05-20T02:51:44.941Z,0
2019-05-20T02:52:45.036Z,0
2019-05-20T02:53:45.356Z,0
2019-05-20T02:54:44.945Z,0
2019-05-20T02:55:45.028Z,0
2019-05-20T02:56:44.962Z,0
2019-05-20T02:57:45.015Z,0
2019-05-20T02:58:45.000Z,0
2019-05-20T02:59:45.745Z,0
2019-05-20T03:00:45.057Z,0
2019-05-20T03:01:44.980Z,0
2019-05-20T03:02:45.007Z,0
2019-05-20T03:03:44.933Z,0
2019-05-20T03:04:44.970Z,0
2019-05-20T03:05:45.343Z,0
2019-05-20T03:06:44.971Z,0
2019-05-20T03:07:44.962Z,0
2019-05-20T03:08:44.973Z,0
2019-05-20T03:09:45.055Z,4
2019-05-20T03:10:45.061Z,4
2019-05-20T03:11:45.450Z,0
2019-05-20T03:12:45.020Z,0
2019-05-20T03:13:44.994Z,4
2019-05-20T03:14:45.014Z,4
2019-05-20T03:15:45.143Z,0
2019-05-20T03:16:45.056Z,0
2019-05-20T03:17:46.371Z,4
2019-05-20T03:18:44.963Z,4
2019-05-20T03:19:44.984Z,4
2019-05-20T03:20:45.055Z,4
2019-05-20T03:21:44.987Z,4
2019-05-20T03:22:44.945Z,4
2019-05-20T03:23:45.013Z,4
2019-05-20T03:24:45.038Z,8
2019-05-20T03:25:45.073Z,8
2019-05-20T03:26:45.017Z,8
2019-05-20T03:27:45.126Z,8
2019-05-20T03:28:45.023Z,8
2019-05-20T03:29:45.010Z,8
2019-05-20T03:30:45.067Z,8
2019-05-20T03:31:45.045Z,12
2019-05-20T03:32:45.094Z,8
2019-05-20T03:33:45.240Z,12
2019-05-20T03:36:05.022Z,12
2019-05-20T03:37:03.614Z,12
2019-05-20T03:38:03.623Z,16
2019-05-20T03:39:03.605Z,16
2019-05-20T03:40:03.717Z,20
2019-05-20T03:41:03.663Z,16
2019-05-20T03:42:03.994Z,20
2019-05-20T03:43:03.661Z,24
2019-05-20T03:44:03.663Z,20
2019-05-20T03:45:03.624Z,24
2019-05-20T03:46:03.669Z,24
2019-05-20T03:47:03.681Z,24
2019-05-20T03:48:04.101Z,28
2019-05-20T03:49:03.732Z,28
2019-05-20T03:50:03.636Z,28
2019-05-20T03:51:03.622Z,28
2019-05-20T03:52:03.689Z,28
2019-05-20T03:53:03.613Z,32
2019-05-20T03:54:03.576Z,32
2019-05-20T03:55:03.629Z,32
2019-05-20T03:56:03.635Z,36
2019-05-20T03:57:03.597Z,36
2019-05-20T03:58:03.651Z,36
2019-05-20T03:59:03.615Z,40
2019-05-20T04:00:03.622Z,36
2019-05-20T04:01:03.603Z,36
2019-05-20T04:02:03.588Z,40
2019-05-20T04:03:03.598Z,40
2019-05-20T04:04:03.648Z,40
2019-05-20T04:05:10.719Z,40
2019-05-20T04:06:04.019Z,44
2019-05-20T04:07:03.728Z,40
2019-05-20T04:08:03.713Z,44
2019-05-20T04:09:03.634Z,44
2019-05-20T04:10:03.623Z,48
2019-05-20T04:11:03.649Z,48
2019-05-20T04:12:03.638Z,48
2019-05-20T04:13:03.626Z,52
2019-05-20T04:14:03.646Z,52
2019-05-20T04:15:03.634Z,56
2019-05-20T04:16:03.660Z,52
2019-05-20T04:17:03.797Z,56
2019-05-20T04:18:03.640Z,56
2019-05-20T04:19:03.783Z,56
2019-05-20T04:20:03.654Z,60
2019-05-20T04:21:03.660Z,56
2019-05-20T04:22:03.813Z,56
2019-05-20T04:23:03.752Z,60
2019-05-20T04:24:09.350Z,60
2019-05-20T04:25:04.538Z,56
2019-05-20T04:26:04.002Z,60
2019-05-20T04:27:03.801Z,56
2019-05-20T04:28:03.782Z,56
2019-05-20T04:29:03.756Z,60
2019-05-20T04:30:04.146Z,60
2019-05-20T04:31:03.739Z,60
2019-05-20T04:32:04.023Z,64
2019-05-20T04:33:03.678Z,72
2019-05-20T04:34:03.680Z,76
2019-05-20T04:35:23.632Z,80
2019-05-20T04:36:03.695Z,80
2019-05-20T04:37:03.669Z,92
2019-05-20T04:38:03.773Z,100
2019-05-20T04:39:03.691Z,108
2019-05-20T04:40:03.739Z,112
2019-05-20T04:41:03.787Z,120
2019-05-20T04:42:06.409Z,124
2019-05-20T04:43:03.730Z,124
2019-05-20T04:44:03.675Z,128
2019-05-20T04:45:04.134Z,132
2019-05-20T04:46:03.717Z,132
2019-05-20T04:47:05.930Z,132
2019-05-20T04:48:03.682Z,132
2019-05-20T04:49:03.768Z,124
2019-05-20T04:50:03.697Z,120
2019-05-20T04:51:03.705Z,116
2019-05-20T04:52:03.711Z,108
2019-05-20T04:53:03.721Z,100
2019-05-20T04:54:03.739Z,96
2019-05-20T04:55:03.706Z,92
2019-05-20T04:56:03.711Z,92
2019-05-20T04:57:03.716Z,92
2019-05-20T04:58:03.692Z,92
2019-05-20T04:59:03.752Z,92
2019-05-20T05:00:03.769Z,92
2019-05-20T05:01:03.941Z,88
2019-05-20T05:02:03.721Z,84
2019-05-20T05:03:03.701Z,80
2019-05-20T05:04:03.744Z,84
2019-05-20T05:05:03.734Z,76
2019-05-20T05:06:03.702Z,76
2019-05-20T05:07:03.825Z,68
2019-05-20T05:08:03.772Z,64
2019-05-20T05:09:03.817Z,64
2019-05-20T05:10:03.721Z,56
2019-05-20T05:11:03.728Z,56
2019-05-20T05:12:04.084Z,52
2019-05-20T05:13:03.787Z,52
2019-05-20T05:14:03.728Z,56
2019-05-20T05:15:07.635Z,52
2019-05-20T05:16:03.723Z,52
2019-05-20T05:17:03.766Z,48
2019-05-20T05:18:04.102Z,52
2019-05-20T05:19:03.860Z,52
2019-05-20T05:20:03.705Z,56
2019-05-20T05:21:03.751Z,60
2019-05-20T05:22:03.740Z,68
2019-05-20T05:23:03.809Z,76
2019-05-20T05:24:07.361Z,84
2019-05-20T05:25:03.757Z,92
2019-05-20T05:26:03.851Z,100
2019-05-20T05:27:03.811Z,112
2019-05-20T05:28:03.940Z,124
2019-05-20T05:29:03.785Z,128
2019-05-20T05:30:04.106Z,128
2019-05-20T05:31:03.906Z,132
2019-05-20T05:32:03.763Z,136
2019-05-20T05:33:03.813Z,144
2019-05-20T05:34:03.819Z,148
2019-05-20T05:35:03.742Z,176
2019-05-20T05:36:03.773Z,196
2019-05-20T05:37:03.777Z,236
2019-05-20T05:38:05.186Z,360
2019-05-20T05:41:11.368Z,380
2019-05-20T05:41:33.533Z,412
2019-05-20T05:42:22.363Z,420
2019-05-20T05:43:22.375Z,444
2019-05-20T05:44:22.413Z,444
2019-05-20T05:45:22.296Z,456
2019-05-20T05:46:22.794Z,472
2019-05-20T05:47:22.412Z,500
2019-05-20T05:48:22.378Z,516
2019-05-20T05:49:22.362Z,512
2019-05-20T05:50:22.373Z,504
2019-05-20T05:51:22.356Z,492
2019-05-20T05:52:25.804Z,476
2019-05-20T05:53:22.375Z,468
2019-05-20T05:54:22.416Z,456
2019-05-20T05:55:22.371Z,444
2019-05-20T05:56:22.393Z,432
2019-05-20T05:57:22.418Z,424
2019-05-20T05:58:22.727Z,412
2019-05-20T05:59:22.369Z,396
2019-05-20T06:00:22.483Z,388
2019-05-20T06:01:22.449Z,384
2019-05-20T06:02:22.403Z,384
2019-05-20T06:03:22.437Z,384
2019-05-20T06:04:22.830Z,380
2019-05-20T06:05:22.407Z,372
2019-05-20T06:06:22.474Z,364
2019-05-20T06:07:22.482Z,364
2019-05-20T06:08:22.838Z,380
2019-05-20T06:11:38.318Z,480
2019-05-20T06:12:38.444Z,508
2019-05-20T06:13:38.310Z,572
2019-05-20T06:14:38.236Z,696
2019-05-20T06:15:38.280Z,812
2019-05-20T06:16:44.413Z,628
2019-05-20T06:17:38.212Z,608
2019-05-20T06:18:38.391Z,600
2019-05-20T06:19:38.248Z,596
2019-05-20T06:20:38.301Z,592
2019-05-20T06:21:38.239Z,740
2019-05-20T06:22:38.334Z,800
2019-05-20T06:23:39.742Z,768
2019-05-20T06:24:38.248Z,820
2019-05-20T06:26:13.511Z,640
2019-05-20T06:26:38.355Z,612
2019-05-20T06:27:38.302Z,568
2019-05-20T06:28:38.456Z,524
2019-05-20T06:29:39.529Z,500
2019-05-20T06:30:38.663Z,472
2019-05-20T06:31:38.450Z,452
2019-05-20T06:32:38.334Z,448
2019-05-20T06:33:38.320Z,432
2019-05-20T06:34:38.443Z,420
2019-05-20T06:35:38.311Z,408
2019-05-20T06:36:38.343Z,408
2019-05-20T06:37:38.285Z,404
2019-05-20T06:38:38.537Z,396
2019-05-20T06:39:38.563Z,392
2019-05-20T06:40:38.345Z,388
2019-05-20T06:41:42.471Z,392
2019-05-20T06:42:38.756Z,400
2019-05-20T06:43:38.674Z,412
2019-05-20T06:44:57.264Z,592
2019-05-20T06:45:38.398Z,472
2019-05-20T06:46:38.333Z,448
2019-05-20T06:47:38.663Z,448
2019-05-20T06:48:38.391Z,452
2019-05-20T06:49:38.316Z,448
2019-05-20T06:50:38.409Z,444
2019-05-20T06:51:38.289Z,432
2019-05-20T06:52:43.930Z,420
2019-05-20T06:53:38.641Z,416
2019-05-20T06:54:38.349Z,416
2019-05-20T06:55:38.302Z,420
2019-05-20T06:56:38.575Z,420
2019-05-20T06:57:38.408Z,440
2019-05-20T06:58:38.319Z,480
2019-05-20T06:59:38.339Z,548
2019-05-20T07:00:38.903Z,684
2019-05-20T07:01:38.386Z,772
2019-05-20T07:02:38.345Z,844
2019-05-20T07:07:54.926Z,1656
2019-05-20T07:09:05.926Z,1968
2019-05-20T07:10:05.956Z,908
2019-05-20T07:11:05.955Z,776
2019-05-20T07:12:05.914Z,616
2019-05-20T07:13:05.956Z,484
2019-05-20T07:14:05.941Z,436
2019-05-20T07:15:05.929Z,424
2019-05-20T07:16:05.959Z,452
2019-05-20T07:17:05.947Z,512
2019-05-20T07:18:06.246Z,1824
2019-05-20T07:19:05.899Z,692
2019-05-20T07:20:05.879Z,784
2019-05-20T07:21:05.951Z,740
2019-05-20T07:22:05.931Z,780
2019-05-20T07:23:05.969Z,800
2019-05-20T07:24:06.253Z,672
2019-05-20T07:25:05.933Z,600
2019-05-20T07:26:05.986Z,524
2019-05-20T07:27:05.951Z,468
2019-05-20T07:28:06.017Z,432
2019-05-20T07:29:06.104Z,420
2019-05-20T07:30:06.409Z,428
2019-05-20T07:31:06.142Z,492
2019-05-20T07:32:05.926Z,928
2019-05-20T07:33:05.966Z,1284
2019-05-20T07:34:06.106Z,804
2019-05-20T07:35:05.962Z,1428
2019-05-20T07:36:09.737Z,1180
2019-05-20T07:37:11.132Z,964
2019-05-20T07:38:06.123Z,684
2019-05-20T07:39:06.047Z,608
2019-05-20T07:40:06.019Z,576
2019-05-20T07:41:05.980Z,564
2019-05-20T07:42:06.361Z,568
2019-05-20T07:43:06.061Z,588
2019-05-20T07:44:06.532Z,492
2019-05-20T07:47:16.185Z,428
2019-05-20T07:48:27.818Z,420
2019-05-20T07:49:27.258Z,432
2019-05-20T07:50:27.303Z,392
2019-05-20T07:51:27.192Z,356
2019-05-20T07:52:27.194Z,344
2019-05-20T07:53:27.200Z,340
2019-05-20T07:54:27.207Z,332
2019-05-20T07:55:27.306Z,316
2019-05-20T07:56:27.179Z,292
2019-05-20T07:57:27.249Z,276
2019-05-20T07:58:27.384Z,272
2019-05-20T07:59:27.242Z,268
2019-05-20T08:00:27.609Z,268
2019-05-20T08:01:27.295Z,268
2019-05-20T08:02:27.262Z,264
2019-05-20T08:07:54.881Z,288
2019-05-20T08:08:06.095Z,288
2019-05-20T08:09:06.066Z,296
2019-05-20T08:10:06.108Z,316
2019-05-20T08:11:05.910Z,340
2019-05-20T08:12:06.041Z,348
2019-05-20T08:13:06.547Z,348
2019-05-20T08:14:06.011Z,356
2019-05-20T08:15:05.938Z,368
2019-05-20T08:16:07.684Z,416
2019-05-20T08:17:06.019Z,352
2019-05-20T08:18:09.270Z,352
2019-05-20T08:19:10.022Z,360
2019-05-20T08:20:06.437Z,388
2019-05-20T08:27:36.529Z,328
2019-05-20T08:27:47.551Z,228
2019-05-20T08:28:47.581Z,228
2019-05-20T08:29:47.561Z,232
2019-05-20T08:30:47.641Z,244
2019-05-20T08:31:47.749Z,256
2019-05-20T08:32:47.560Z,252
2019-05-20T08:33:47.607Z,244
2019-05-20T08:34:48.418Z,240
2019-05-20T08:36:22.439Z,228
2019-05-20T08:36:47.694Z,224
2019-05-20T08:37:53.316Z,224
2019-05-20T08:38:47.623Z,220
2019-05-20T08:39:47.533Z,212
2019-05-20T08:40:51.262Z,208
2019-05-20T08:46:14.441Z,220
2019-05-20T08:46:25.605Z,216
2019-05-20T08:47:25.484Z,204
2019-05-20T08:48:25.513Z,192
2019-05-20T08:49:25.497Z,184
2019-05-20T08:50:25.462Z,176
2019-05-20T08:51:25.716Z,160
2019-05-20T08:52:25.478Z,156
2019-05-20T08:53:25.445Z,152
2019-05-20T08:54:25.571Z,152
2019-05-20T08:55:25.537Z,148
2019-05-20T08:56:25.933Z,148
2019-05-20T08:57:26.906Z,152
2019-05-20T08:58:25.617Z,160
2019-05-20T08:59:25.562Z,164
2019-05-20T09:00:31.835Z,164
2019-05-20T09:01:25.458Z,160
2019-05-20T09:02:29.152Z,160
2019-05-20T09:03:25.578Z,164
2019-05-20T09:04:25.476Z,168
2019-05-20T09:05:28.049Z,180
2019-05-20T09:06:28.559Z,184
2019-05-20T09:07:25.613Z,188
2019-05-20T09:08:25.540Z,184
2019-05-20T09:09:26.082Z,184
2019-05-20T09:10:26.295Z,192
2019-05-20T09:11:25.505Z,204
2019-05-20T09:12:25.879Z,216
2019-05-20T09:17:43.534Z,228
2019-05-20T09:17:55.442Z,252
2019-05-20T09:18:55.370Z,252
2019-05-20T09:19:55.433Z,248
2019-05-20T09:20:55.388Z,248
2019-05-20T09:21:55.389Z,244
2019-05-20T09:22:55.437Z,240
2019-05-20T09:23:55.372Z,236
2019-05-20T09:24:56.674Z,232
2019-05-20T09:25:55.374Z,228
2019-05-20T09:26:55.644Z,224
2019-05-20T09:27:55.371Z,220
2019-05-20T09:28:55.431Z,216
2019-05-20T09:29:55.441Z,216
2019-05-20T09:30:55.511Z,220
2019-05-20T09:31:55.482Z,220
2019-05-20T09:32:55.396Z,224
2019-05-20T09:33:55.417Z,228
2019-05-20T09:34:55.390Z,232
2019-05-20T09:35:55.561Z,236
2019-05-20T09:36:55.386Z,240
2019-05-20T09:37:55.394Z,248
2019-05-20T09:38:55.479Z,252
2019-05-20T09:39:56.228Z,260
2019-05-20T09:42:00.840Z,284
2019-05-20T09:43:00.940Z,304
2019-05-20T09:44:00.760Z,336
2019-05-20T09:45:05.858Z,368
2019-05-20T09:46:14.478Z,396
2019-05-20T09:47:00.802Z,404
2019-05-20T09:48:00.899Z,400
2019-05-20T09:49:00.863Z,380
2019-05-20T09:50:00.888Z,364
2019-05-20T09:51:00.783Z,348
2019-05-20T09:52:01.248Z,340
2019-05-20T09:53:00.860Z,328
2019-05-20T09:54:00.823Z,316
2019-05-20T09:55:00.823Z,292
2019-05-20T09:56:00.799Z,276
2019-05-20T09:57:00.833Z,260
2019-05-20T09:58:00.873Z,248
2019-05-20T09:59:00.843Z,236
2019-05-20T10:00:00.785Z,232
2019-05-20T10:01:00.810Z,228
2019-05-20T10:02:00.821Z,236
2019-05-20T10:03:01.373Z,252
2019-05-20T10:04:00.812Z,268
2019-05-20T10:05:00.797Z,276
2019-05-20T10:06:00.825Z,280
2019-05-20T10:07:00.833Z,280
2019-05-20T10:08:00.903Z,276
2019-05-20T10:09:01.180Z,272
2019-05-20T10:10:00.835Z,272
2019-05-20T10:11:04.941Z,268
2019-05-20T10:12:00.815Z,268
2019-05-20T10:13:01.111Z,280
2019-05-20T10:14:00.851Z,300
2019-05-20T10:17:08.449Z,388
2019-05-20T10:18:39.401Z,396
2019-05-20T10:19:19.505Z,396
2019-05-20T10:20:19.433Z,384
2019-05-20T10:21:20.384Z,368
2019-05-20T10:22:19.792Z,356
2019-05-20T10:23:23.458Z,348
2019-05-20T10:24:19.534Z,356
2019-05-20T10:25:19.481Z,368
2019-05-20T10:26:19.553Z,376
2019-05-20T10:27:19.495Z,384
2019-05-20T10:28:19.809Z,396
2019-05-20T10:29:19.504Z,400
2019-05-20T10:30:19.558Z,392
2019-05-20T10:31:19.540Z,384
2019-05-20T10:32:19.482Z,364
2019-05-20T10:33:19.746Z,340
2019-05-20T10:34:19.496Z,308
2019-05-20T10:35:19.526Z,272
2019-05-20T10:36:19.471Z,252
2019-05-20T10:37:19.526Z,236
2019-05-20T10:38:19.504Z,224
2019-05-20T10:39:19.507Z,204
2019-05-20T10:40:19.521Z,192
2019-05-20T10:41:19.530Z,196
2019-05-20T10:42:19.837Z,204
2019-05-20T10:43:19.721Z,220
2019-05-20T10:44:19.526Z,240
2019-05-20T10:45:19.531Z,256
2019-05-20T10:46:19.496Z,272
2019-05-20T10:47:19.529Z,284
2019-05-20T10:48:19.557Z,296
2019-05-20T10:49:19.501Z,304
2019-05-20T10:50:19.484Z,312
2019-05-20T10:51:19.933Z,316
2019-05-20T10:52:19.523Z,328
2019-05-20T10:53:19.563Z,324
2019-05-20T10:54:19.589Z,308
2019-05-20T10:55:19.615Z,292
2019-05-20T10:56:20.879Z,288
2019-05-20T10:57:19.792Z,304
2019-05-20T10:58:19.546Z,324
2019-05-20T10:59:20.198Z,352
2019-05-20T11:00:19.520Z,388
2019-05-20T11:01:19.556Z,408
2019-05-20T11:02:19.560Z,416
2019-05-20T11:03:19.529Z,412
2019-05-20T11:04:19.627Z,404
2019-05-20T11:05:19.558Z,408
2019-05-20T11:06:19.732Z,420
2019-05-20T11:07:19.593Z,440
2019-05-20T11:08:19.523Z,444
2019-05-20T11:09:22.645Z,432
2019-05-20T11:10:19.596Z,424
2019-05-20T11:11:22.309Z,424
2019-05-20T11:12:19.794Z,420
2019-05-20T11:13:19.595Z,416
2019-05-20T11:14:19.542Z,420
2019-05-20T11:15:19.920Z,420
2019-05-20T11:16:19.635Z,420
2019-05-20T11:17:22.988Z,424
2019-05-20T11:18:19.650Z,436
2019-05-20T11:19:19.597Z,448
2019-05-20T11:20:19.769Z,456
2019-05-20T11:21:20.326Z,448
2019-05-20T11:22:19.610Z,444
2019-05-20T11:23:19.623Z,452
2019-05-20T11:24:19.603Z,428
2019-05-20T11:25:19.658Z,384
2019-05-20T11:26:19.566Z,356
2019-05-20T11:27:19.545Z,320
2019-05-20T11:28:20.063Z,296
2019-05-20T11:29:19.728Z,284
2019-05-20T11:30:19.629Z,280
2019-05-20T11:31:19.554Z,268
2019-05-20T11:32:19.679Z,276
2019-05-20T11:33:19.688Z,308
2019-05-20T11:34:19.610Z,360
2019-05-20T11:35:19.617Z,404
2019-05-20T11:36:19.558Z,424
2019-05-20T11:37:19.606Z,432
2019-05-20T11:38:19.696Z,444
2019-05-20T11:39:36.888Z,412
2019-05-20T11:40:20.856Z,336
2019-05-20T11:41:19.612Z,288
2019-05-20T11:42:19.718Z,264
2019-05-20T11:43:19.598Z,272
2019-05-20T11:44:19.971Z,296
2019-05-20T11:45:19.601Z,304
2019-05-20T11:46:19.613Z,300
2019-05-20T11:47:19.636Z,304
2019-05-20T11:48:19.622Z,324
2019-05-20T11:49:19.612Z,356
2019-05-20T11:50:19.837Z,388
2019-05-20T11:51:19.637Z,420
2019-05-20T11:56:36.657Z,564
2019-05-20T11:57:47.762Z,580
2019-05-20T11:58:47.718Z,588
2019-05-20T11:59:47.697Z,588
2019-05-20T12:00:47.742Z,580
2019-05-20T12:01:47.767Z,572
2019-05-20T12:02:47.709Z,552
2019-05-20T12:03:47.676Z,540
2019-05-20T12:04:47.724Z,540
2019-05-20T12:05:47.941Z,540
2019-05-20T12:06:47.704Z,532
2019-05-20T12:07:47.787Z,520
2019-05-20T12:12:07.644Z,408
2019-05-20T12:12:18.684Z,404
2019-05-20T12:13:18.735Z,392
2019-05-20T12:14:18.615Z,388
2019-05-20T12:15:18.667Z,396
2019-05-20T12:16:18.712Z,404
2019-05-20T12:17:18.653Z,408
2019-05-20T12:18:18.662Z,412
2019-05-20T12:19:18.750Z,424
2019-05-20T12:20:20.463Z,436
2019-05-20T12:21:18.701Z,456
2019-05-20T12:22:18.685Z,456
2019-05-20T12:23:19.085Z,448
2019-05-20T12:24:18.635Z,448
2019-05-20T12:25:18.766Z,444
2019-05-20T12:26:22.001Z,436
2019-05-20T12:27:18.707Z,444
2019-05-20T12:32:36.355Z,452
2019-05-20T12:32:47.346Z,452
2019-05-20T12:33:47.306Z,460
2019-05-20T12:34:47.322Z,488
2019-05-20T12:35:47.343Z,512
2019-05-20T12:36:47.331Z,532
2019-05-20T12:37:51.306Z,548
2019-05-20T12:38:47.318Z,552
2019-05-20T12:39:47.434Z,560
2019-05-20T12:40:47.382Z,568
2019-05-20T12:41:47.490Z,576
2019-05-20T12:42:47.372Z,592
2019-05-20T12:44:13.166Z,608
2019-05-20T12:44:47.370Z,620
2019-05-20T12:45:47.348Z,636
2019-05-20T12:46:47.427Z,648
2019-05-20T12:47:47.408Z,652
2019-05-20T12:48:47.641Z,656
2019-05-20T12:49:47.336Z,660
2019-05-20T12:50:47.366Z,668
2019-05-20T12:51:47.457Z,680
2019-05-20T12:52:47.440Z,692
2019-05-20T12:53:47.447Z,708
2019-05-20T12:55:04.005Z,724
2019-05-20T12:55:47.708Z,748
2019-05-20T12:57:02.501Z,788
2019-05-20T12:57:47.390Z,808
2019-05-20T13:02:20.029Z,856
2019-05-20T13:03:16.471Z,844
2019-05-20T13:04:16.759Z,800
2019-05-20T13:05:16.170Z,752
2019-05-20T13:06:16.252Z,708
2019-05-20T13:07:16.465Z,660
2019-05-20T13:08:16.641Z,628
2019-05-20T13:09:16.276Z,604
2019-05-20T13:10:37.671Z,588
2019-05-20T13:11:16.254Z,588
2019-05-20T13:12:20.086Z,584
2019-05-20T13:13:16.241Z,580
2019-05-20T13:14:16.633Z,572
2019-05-20T13:15:16.698Z,556
2019-05-20T13:16:16.448Z,544
2019-05-20T13:17:16.702Z,536
2019-05-20T13:18:16.237Z,520
2019-05-20T13:19:16.218Z,516
2019-05-20T13:20:16.257Z,504
2019-05-20T13:21:16.261Z,500
2019-05-20T13:22:17.089Z,496
2019-05-20T13:23:21.138Z,492
2019-05-20T13:24:16.211Z,476
2019-05-20T13:25:16.215Z,460
2019-05-20T13:26:16.309Z,440
2019-05-20T13:27:16.601Z,420
2019-05-20T13:28:16.195Z,408
2019-05-20T13:29:16.406Z,392
2019-05-20T13:30:16.193Z,372
2019-05-20T13:31:16.665Z,360
2019-05-20T13:32:16.246Z,364
2019-05-20T13:33:16.237Z,364
2019-05-20T13:34:18.297Z,364
2019-05-20T13:35:16.307Z,352
2019-05-20T13:36:16.264Z,348
2019-05-20T13:37:16.237Z,368
2019-05-20T13:38:16.327Z,392
2019-05-20T13:39:16.247Z,424
2019-05-20T13:40:16.262Z,452
2019-05-20T13:41:16.243Z,484
2019-05-20T13:42:27.244Z,468
2019-05-20T13:43:16.319Z,448
2019-05-20T13:44:16.255Z,436
2019-05-20T13:45:16.267Z,400
2019-05-20T13:46:16.277Z,368
2019-05-20T13:47:16.318Z,360
2019-05-20T13:48:16.367Z,372
2019-05-20T13:49:16.721Z,388
2019-05-20T13:50:16.279Z,412
2019-05-20T13:51:16.248Z,428
2019-05-20T13:52:16.272Z,440
2019-05-20T13:53:16.279Z,452
2019-05-20T13:54:17.345Z,464
2019-05-20T13:55:16.925Z,464
2019-05-20T13:56:16.299Z,468
2019-05-20T13:57:20.771Z,472
2019-05-20T13:58:16.392Z,480
2019-05-20T13:59:16.275Z,484
2019-05-20T14:00:16.322Z,492
2019-05-20T14:01:16.290Z,504
2019-05-20T14:02:16.273Z,504
2019-05-20T14:03:16.285Z,488
2019-05-20T14:04:16.270Z,456
2019-05-20T14:05:16.319Z,412
2019-05-20T14:06:16.339Z,372
2019-05-20T14:07:16.641Z,336
2019-05-20T14:08:16.776Z,308
2019-05-20T14:09:18.067Z,296
2019-05-20T14:10:20.449Z,268
2019-05-20T14:11:16.293Z,252
2019-05-20T14:12:26.823Z,220
2019-05-20T14:13:16.697Z,204
2019-05-20T14:14:19.528Z,208
2019-05-20T14:15:16.387Z,216
2019-05-20T14:16:16.370Z,216
2019-05-20T14:17:16.561Z,208
2019-05-20T14:18:16.895Z,188
2019-05-20T14:19:16.302Z,192
2019-05-20T14:20:16.439Z,196
2019-05-20T14:21:16.397Z,200
2019-05-20T14:22:16.324Z,212
2019-05-20T14:23:16.766Z,212
2019-05-20T14:24:16.627Z,204
2019-05-20T14:25:16.726Z,180
2019-05-20T14:26:16.613Z,156
2019-05-20T14:33:42.773Z,128
2019-05-20T14:34:54.597Z,128
2019-05-20T14:35:54.273Z,128
2019-05-20T14:36:58.214Z,124
2019-05-20T14:37:54.145Z,124
2019-05-20T14:38:54.259Z,120
2019-05-20T14:39:54.332Z,112
2019-05-20T14:40:54.357Z,104
2019-05-20T14:41:54.090Z,104
2019-05-20T14:42:54.123Z,96
2019-05-20T14:43:54.150Z,92
2019-05-20T14:44:54.444Z,84
2019-05-20T14:45:54.123Z,76
2019-05-20T14:46:54.150Z,72
2019-05-20T14:47:55.394Z,68
2019-05-20T14:48:55.558Z,60
2019-05-20T14:49:54.216Z,56
2019-05-20T14:50:56.428Z,52
2019-05-20T14:51:55.439Z,44
2019-05-20T14:52:54.896Z,36
2019-05-20T14:53:54.230Z,28
2019-05-20T14:54:55.158Z,28
2019-05-20T14:55:55.190Z,28
2019-05-20T14:56:56.189Z,24
2019-05-20T14:57:56.007Z,24
2019-05-20T14:58:56.239Z,28
2019-05-20T14:59:55.840Z,28
2019-05-20T15:00:55.351Z,28
2019-05-20T15:01:54.174Z,32
2019-05-20T15:02:59.466Z,28
2019-05-20T15:03:54.843Z,20
2019-05-20T15:04:55.535Z,24